Time;durP1;ratioP1;P1;durP2;ratioP2;P2;SDS_P1;SDS_P2;PMS_P1;PMS_P2;Temp;Humidity;BMP_temperature;BMP_pressure;BME280_temperature;BME280_humidity;BME280_pressure;Samples;Min_cycle;Max_cycle;Signal;HPM_P1;HPM_P2
2022/06/20 00:01:24;;;;;;;1.73;0.40;;;15.00;85.00;;;;;;5069578;28;20032;-59
2022/06/20 00:03:51;;;;;;;2.38;0.50;;;15.00;85.00;;;;;;5067287;28;20021;-59
2022/06/20 00:06:22;;;;;;;4.70;0.50;;;15.00;84.90;;;;;;5065043;28;20105;-59
2022/06/20 00:08:51;;;;;;;3.35;0.60;;;15.00;85.00;;;;;;5068175;28;20024;-59
2022/06/20 00:11:41;;;;;;;4.13;0.80;;;14.90;85.10;;;;;;5068856;28;20020;-59
2022/06/20 00:14:12;;;;;;;2.08;0.50;;;15.00;85.00;;;;;;5065456;28;20036;-59
2022/06/20 00:16:37;;;;;;;3.92;1.20;;;14.90;85.20;;;;;;5068376;28;20020;-59
2022/06/20 00:19:03;;;;;;;2.05;0.50;;;14.90;85.20;;;;;;5066906;28;20047;-59
2022/06/20 00:21:29;;;;;;;1.35;0.30;;;14.90;85.30;;;;;;5067062;28;20031;-59
2022/06/20 00:23:54;;;;;;;2.83;0.30;;;14.90;85.40;;;;;;5082687;28;20089;-59
2022/06/20 00:26:20;;;;;;;3.17;0.60;;;14.90;85.40;;;;;;5065888;28;20344;-59
2022/06/20 00:28:46;;;;;;;2.78;0.40;;;14.90;85.40;;;;;;5067483;28;20043;-59
2022/06/20 00:31:13;;;;;;;2.50;0.40;;;14.80;85.40;;;;;;5067600;28;20148;-59
2022/06/20 00:33:38;;;;;;;4.65;0.45;;;14.80;85.40;;;;;;5064852;28;20593;-58
2022/06/20 00:36:05;;;;;;;2.08;0.40;;;14.80;85.50;;;;;;5064002;28;20119;-59
2022/06/20 00:38:31;;;;;;;1.85;0.30;;;14.70;85.50;;;;;;5068232;28;20508;-59
2022/06/20 00:41:05;;;;;;;1.98;0.50;;;14.70;85.70;;;;;;5066607;28;20464;-59
2022/06/20 00:43:47;;;;;;;2.47;0.30;;;14.70;85.80;;;;;;5067409;28;20025;-59
2022/06/20 00:46:26;;;;;;;2.63;0.50;;;14.70;85.90;;;;;;5066545;28;20025;-59
2022/06/20 00:49:00;;;;;;;2.65;0.50;;;14.70;85.80;;;;;;5068095;28;20016;-59
2022/06/20 00:51:36;;;;;;;3.35;0.50;;;14.70;85.90;;;;;;5065987;28;20107;-59
2022/06/20 00:54:16;;;;;;;2.53;0.40;;;14.70;85.80;;;;;;5062187;28;20036;-59
2022/06/20 00:56:53;;;;;;;1.17;0.40;;;14.70;85.70;;;;;;5068574;28;20117;-59
2022/06/20 00:59:27;;;;;;;2.22;0.43;;;14.70;85.80;;;;;;5065139;28;20024;-59
2022/06/20 01:01:54;;;;;;;3.13;0.38;;;14.70;85.80;;;;;;5066826;28;20032;-59
2022/06/20 01:04:33;;;;;;;1.90;0.40;;;14.70;85.80;;;;;;5067308;28;20032;-59
2022/06/20 01:07:03;;;;;;;3.10;0.60;;;14.70;85.90;;;;;;5065451;28;20047;-59
2022/06/20 01:09:31;;;;;;;;;;;14.60;86.30;;;;;;5067697;28;20029;-59
2022/06/20 01:12:02;;;;;;;2.45;0.52;;;14.50;86.40;;;;;;5066166;28;19915;-59
2022/06/20 01:14:36;;;;;;;4.57;0.50;;;14.40;87.60;;;;;;5068400;28;20396;-59
2022/06/20 01:17:06;;;;;;;5.38;1.23;;;14.40;88.30;;;;;;5068616;28;20031;-59
2022/06/20 01:19:55;;;;;;;3.63;0.77;;;14.20;89.60;;;;;;5065492;28;20484;-59
2022/06/20 01:22:38;;;;;;;2.55;0.50;;;14.10;90.20;;;;;;5066044;28;20032;-59
2022/06/20 01:25:41;;;;;;;5.50;0.88;;;14.10;90.40;;;;;;5067756;28;20017;-58
2022/06/20 01:28:10;;;;;;;1.88;0.50;;;14.00;90.40;;;;;;5079181;28;20074;-59
2022/06/20 01:30:41;;;;;;;3.03;0.60;;;14.00;90.60;;;;;;5072705;28;20484;-59
2022/06/20 01:33:07;;;;;;;1.73;0.40;;;14.10;90.60;;;;;;5067185;28;20259;-58
2022/06/20 01:38:19;;;;;;;2.15;0.50;;;14.20;90.40;;;;;;5066706;28;20102;-59
2022/06/20 01:43:35;;;;;;;3.33;0.40;;;14.30;90.40;;;;;;5066167;28;20392;-59
2022/06/20 01:46:04;;;;;;;2.70;0.40;;;14.30;90.40;;;;;;5066666;28;20039;-59
2022/06/20 01:48:32;;;;;;;1.02;0.32;;;14.40;90.50;;;;;;5066610;28;20017;-59
2022/06/20 01:50:58;;;;;;;3.03;0.40;;;14.30;90.50;;;;;;5065701;28;20082;-59
2022/06/20 01:53:31;;;;;;;2.80;0.40;;;14.30;90.60;;;;;;5070332;28;20033;-58
2022/06/20 01:55:58;;;;;;;1.00;0.40;;;14.40;90.60;;;;;;5072361;28;20055;-58
2022/06/20 01:58:33;;;;;;;3.75;0.40;;;14.40;90.70;;;;;;5068147;28;20163;-59
2022/06/20 02:01:02;;;;;;;1.55;0.28;;;14.40;90.70;;;;;;5072308;28;20070;-58
2022/06/20 02:03:31;;;;;;;1.48;0.30;;;14.40;90.80;;;;;;5074182;28;20036;-58
2022/06/20 02:05:57;;;;;;;2.35;0.40;;;14.40;90.80;;;;;;5079121;28;20123;-58
2022/06/20 02:08:24;;;;;;;1.48;0.38;;;14.30;90.90;;;;;;5068199;28;20066;-58
2022/06/20 02:11:06;;;;;;;2.22;0.40;;;14.30;91.00;;;;;;5070256;28;20443;-58
2022/06/20 02:13:37;;;;;;;1.13;0.40;;;14.30;91.00;;;;;;5065735;28;20025;-58
2022/06/20 02:16:06;;;;;;;3.13;0.47;;;14.20;91.10;;;;;;5071685;28;20112;-58
2022/06/20 02:18:35;;;;;;;1.95;0.30;;;14.20;91.20;;;;;;5070523;28;20076;-58
2022/06/20 02:21:05;;;;;;;1.75;0.52;;;14.20;91.20;;;;;;5071367;28;20060;-58
2022/06/20 02:23:33;;;;;;;;;;;14.10;91.30;;;;;;5070637;28;20357;-58
2022/06/20 02:26:01;;;;;;;1.23;0.40;;;14.00;91.30;;;;;;5070156;28;19919;-58
2022/06/20 02:28:34;;;;;;;0.60;0.35;;;14.00;91.60;;;;;;5069318;28;20475;-58
2022/06/20 02:31:01;;;;;;;1.00;0.40;;;14.00;91.50;;;;;;5068940;28;20021;-58
2022/06/20 02:33:29;;;;;;;2.75;0.40;;;14.00;91.50;;;;;;5053587;28;20400;-58
2022/06/20 02:35:57;;;;;;;3.80;0.90;;;14.00;91.60;;;;;;5070784;28;20101;-58
2022/06/20 02:38:23;;;;;;;2.35;0.40;;;14.00;91.60;;;;;;5069727;28;20033;-58
2022/06/20 02:41:11;;;;;;;;;;;;;;;;;;;;;
2022/06/20 02:43:46;;;;;;;3.22;0.50;;;13.90;91.70;;;;;;5069217;28;20026;-58
2022/06/20 02:46:15;;;;;;;2.58;0.40;;;13.90;91.80;;;;;;5068718;28;20017;-58
2022/06/20 02:48:45;;;;;;;3.67;0.50;;;13.90;91.80;;;;;;5068934;28;20062;-58
2022/06/20 02:51:12;;;;;;;;;;;13.90;91.80;;;;;;5070954;28;20017;-58
2022/06/20 02:53:45;;;;;;;3.28;0.40;;;13.80;91.80;;;;;;5070132;28;19974;-58
2022/06/20 02:56:15;;;;;;;3.78;0.45;;;13.70;91.90;;;;;;5070925;28;20040;-58
2022/06/20 02:58:45;;;;;;;3.53;0.75;;;13.80;91.90;;;;;;5068417;28;20024;-58
2022/06/20 03:01:23;;;;;;;3.10;0.60;;;13.80;91.90;;;;;;5069509;28;20103;-58
2022/06/20 03:03:52;;;;;;;2.97;0.75;;;13.80;91.90;;;;;;5068363;28;20047;-58
2022/06/20 03:06:46;;;;;;;2.33;0.70;;;13.80;91.90;;;;;;5067630;28;20027;-58
2022/06/20 03:09:15;;;;;;;2.75;0.43;;;13.90;91.80;;;;;;5064638;28;20055;-58
2022/06/20 03:11:42;;;;;;;3.97;0.60;;;13.90;91.90;;;;;;5069608;28;20020;-59
2022/06/20 03:14:13;;;;;;;2.05;0.45;;;13.90;91.80;;;;;;5067859;28;20017;-58
2022/06/20 03:16:39;;;;;;;2.28;0.60;;;13.90;91.80;;;;;;5068386;28;20025;-58
2022/06/20 03:19:10;;;;;;;3.78;1.25;;;13.90;91.90;;;;;;5067625;28;20029;-59
2022/06/20 03:21:39;;;;;;;2.20;0.80;;;13.90;91.90;;;;;;5067151;28;20459;-58
2022/06/20 03:24:06;;;;;;;1.98;0.70;;;13.90;91.90;;;;;;5069403;28;20908;-58
2022/06/20 03:26:32;;;;;;;2.22;0.50;;;13.90;92.00;;;;;;5069273;28;20047;-58
2022/06/20 03:28:58;;;;;;;2.58;0.50;;;13.90;92.00;;;;;;5066794;28;20104;-58
2022/06/20 03:31:24;;;;;;;1.85;0.77;;;14.00;92.10;;;;;;5066517;28;20078;-58
2022/06/20 03:33:50;;;;;;;2.15;0.50;;;14.00;92.10;;;;;;5069181;28;20441;-58
2022/06/20 03:36:25;;;;;;;3.33;0.60;;;14.00;92.20;;;;;;5069791;28;20028;-58
2022/06/20 03:38:52;;;;;;;2.90;0.63;;;14.00;92.20;;;;;;5068058;28;20024;-58
2022/06/20 03:41:21;;;;;;;4.30;0.80;;;14.00;92.30;;;;;;5069050;28;20020;-58
2022/06/20 03:44:14;;;;;;;3.30;0.88;;;14.00;92.40;;;;;;5065377;28;20020;-58
2022/06/20 03:46:53;;;;;;;4.28;0.98;;;14.00;92.40;;;;;;5063554;28;20064;-58
2022/06/20 03:49:28;;;;;;;6.65;1.10;;;14.00;92.60;;;;;;5070144;28;20052;-58
2022/06/20 03:51:59;;;;;;;5.00;1.05;;;14.00;92.60;;;;;;5067826;28;20025;-59
2022/06/20 03:54:32;;;;;;;1.85;0.55;;;14.00;92.60;;;;;;5067482;28;20082;-58
2022/06/20 03:57:09;;;;;;;2.67;0.80;;;14.00;92.60;;;;;;5068078;28;20041;-58
2022/06/20 03:59:49;;;;;;;2.85;0.70;;;14.10;92.60;;;;;;5068306;28;20047;-58
2022/06/20 04:02:45;;;;;;;4.13;0.73;;;14.10;92.60;;;;;;5068141;28;20021;-58
2022/06/20 04:05:50;;;;;;;2.38;0.60;;;14.20;92.50;;;;;;5066246;28;20039;-58
2022/06/20 04:08:21;;;;;;;3.33;0.60;;;14.20;92.50;;;;;;5066896;28;20028;-58
2022/06/20 04:11:01;;;;;;;2.33;0.57;;;14.20;92.50;;;;;;5064526;28;20037;-58
2022/06/20 04:13:37;;;;;;;2.58;0.60;;;14.30;92.30;;;;;;5066044;28;20036;-58
2022/06/20 04:16:14;;;;;;;2.47;0.50;;;14.40;92.30;;;;;;5065095;28;20016;-58
2022/06/20 04:19:09;;;;;;;2.72;0.52;;;14.40;92.30;;;;;;5066263;28;20174;-59
2022/06/20 04:21:52;;;;;;;5.07;0.75;;;14.50;92.20;;;;;;5067497;28;20064;-58
2022/06/20 04:24:37;;;;;;;3.60;0.70;;;14.50;92.20;;;;;;5070618;28;20040;-58
2022/06/20 04:27:26;;;;;;;4.05;1.02;;;14.50;92.10;;;;;;5066891;28;20083;-58
2022/06/20 04:30:29;;;;;;;3.28;0.98;;;14.60;92.00;;;;;;5067437;28;20047;-58
2022/06/20 04:32:59;;;;;;;3.00;0.52;;;14.60;92.00;;;;;;5066612;28;20056;-58
2022/06/20 04:35:36;;;;;;;2.05;0.45;;;14.60;92.00;;;;;;5067340;28;20032;-58
2022/06/20 04:38:23;;;;;;;4.25;0.50;;;14.70;92.00;;;;;;5067980;28;20024;-58
2022/06/20 04:41:10;;;;;;;3.17;0.65;;;14.70;92.00;;;;;;5065187;28;20622;-58
2022/06/20 04:43:57;;;;;;;2.25;0.47;;;14.80;91.90;;;;;;5067097;28;20040;-58
2022/06/20 04:46:37;;;;;;;3.08;0.50;;;14.80;91.90;;;;;;5067994;28;20070;-58
2022/06/20 04:49:03;;;;;;;2.97;0.47;;;14.80;91.90;;;;;;5066932;28;20053;-58
2022/06/20 04:51:57;;;;;;;;;;;;;;;;;;;;;
2022/06/20 04:55:24;;;;;;;2.17;0.60;;;14.90;92.20;;;;;;5068077;28;20027;-58
2022/06/20 04:57:52;;;;;;;3.78;0.63;;;14.90;91.90;;;;;;5055529;28;20508;-62
2022/06/20 05:00:45;;;;;;;2.35;0.60;;;14.90;92.00;;;;;;5065525;28;20548;-58
2022/06/20 05:03:20;;;;;;;4.53;0.73;;;14.90;91.80;;;;;;5066692;28;20036;-58
2022/06/20 05:05:50;;;;;;;1.40;0.50;;;14.90;91.90;;;;;;5068389;28;20016;-58
2022/06/20 05:08:23;;;;;;;3.50;0.65;;;15.00;91.90;;;;;;5066510;28;20024;-58
2022/06/20 05:11:09;;;;;;;2.22;0.70;;;15.10;91.90;;;;;;5053111;28;20021;-58
2022/06/20 05:13:45;;;;;;;2.25;0.50;;;15.20;91.90;;;;;;5057774;28;20025;-58
2022/06/20 05:16:17;;;;;;;2.00;0.45;;;15.30;91.80;;;;;;5052709;28;20404;-59
2022/06/20 05:18:47;;;;;;;2.67;0.80;;;15.30;91.70;;;;;;5052585;28;20029;-58
2022/06/20 05:21:31;;;;;;;1.92;0.60;;;15.40;91.70;;;;;;5052877;28;20362;-58
2022/06/20 05:24:07;;;;;;;2.72;0.63;;;15.50;91.60;;;;;;5057169;28;20074;-59
2022/06/20 05:26:38;;;;;;;1.75;0.47;;;15.60;91.60;;;;;;5058498;28;20108;-58
2022/06/20 05:29:09;;;;;;;3.38;0.77;;;15.60;91.60;;;;;;5052466;28;20028;-59
2022/06/20 05:31:40;;;;;;;2.50;0.50;;;15.70;91.50;;;;;;5051901;28;20378;-58
2022/06/20 05:34:23;;;;;;;2.35;0.50;;;15.80;91.40;;;;;;5056783;28;20074;-58
2022/06/20 05:36:57;;;;;;;2.28;0.55;;;15.80;91.20;;;;;;5071863;28;20031;-58
2022/06/20 05:39:39;;;;;;;3.58;0.82;;;15.90;91.20;;;;;;5064705;28;20020;-58
2022/06/20 05:42:10;;;;;;;3.58;0.52;;;15.90;91.10;;;;;;5052857;28;20107;-58
2022/06/20 05:44:37;;;;;;;3.03;0.63;;;15.90;91.20;;;;;;5070827;28;20070;-59
2022/06/20 05:47:16;;;;;;;3.25;0.63;;;15.80;91.10;;;;;;5071880;28;20389;-58
2022/06/20 05:49:49;;;;;;;4.13;1.10;;;15.90;91.00;;;;;;5052028;28;20025;-59
2022/06/20 05:52:23;;;;;;;3.60;0.68;;;15.90;91.00;;;;;;5055482;28;20047;-59
2022/06/20 05:55:02;;;;;;;3.58;0.80;;;16.00;90.90;;;;;;5070864;28;20025;-58
2022/06/20 05:57:30;;;;;;;1.98;0.40;;;16.10;90.70;;;;;;5058512;28;20064;-58
2022/06/20 06:00:00;;;;;;;1.98;1.17;;;16.10;90.60;;;;;;5067197;28;20029;-58
2022/06/20 06:02:34;;;;;;;1.83;0.70;;;16.20;90.60;;;;;;5051952;28;20095;-59
2022/06/20 06:05:11;;;;;;;2.08;0.68;;;16.20;90.60;;;;;;5065920;28;20021;-58
2022/06/20 06:07:48;;;;;;;2.30;0.60;;;16.20;90.50;;;;;;5072192;28;20036;-58
2022/06/20 06:10:30;;;;;;;1.85;0.43;;;16.30;90.40;;;;;;5056983;28;20025;-58
2022/06/20 06:13:09;;;;;;;2.53;0.50;;;16.30;90.30;;;;;;5065514;28;20040;-59
2022/06/20 06:16:46;;;;;;;1.38;0.50;;;16.40;90.20;;;;;;5065814;28;20044;-58
2022/06/20 06:18:26;;;;;;;1.42;0.40;;;16.50;90.10;;;;;;5059520;28;20392;-59
2022/06/20 06:20:51;;;;;;;3.13;0.70;;;16.60;89.90;;;;;;5052742;28;20040;-58
2022/06/20 06:23:34;;;;;;;;;;;;;;;;;;;;;
2022/06/20 06:29:26;;;;;;;2.50;0.70;;;16.80;89.10;;;;;;5056885;28;20017;-59
2022/06/20 06:32:23;;;;;;;3.97;1.00;;;16.70;88.90;;;;;;5056261;28;20500;-59
2022/06/20 06:35:11;;;;;;;3.10;0.80;;;16.80;88.30;;;;;;5052939;28;20127;-58
2022/06/20 06:38:01;;;;;;;4.82;0.80;;;16.80;87.90;;;;;;5064454;28;20025;-58
2022/06/20 06:40:46;;;;;;;2.85;0.65;;;16.80;87.40;;;;;;5067959;28;20029;-58
2022/06/20 06:43:20;;;;;;;6.25;1.00;;;16.80;87.10;;;;;;5057067;28;20025;-59
2022/06/20 06:45:48;;;;;;;3.53;1.20;;;16.80;87.10;;;;;;5059677;28;20021;-58
2022/06/20 06:48:30;;;;;;;4.10;1.23;;;16.80;86.70;;;;;;5056025;28;20021;-58
2022/06/20 06:51:09;;;;;;;5.93;1.33;;;16.80;86.10;;;;;;5068549;28;20105;-58
2022/06/20 06:54:11;;;;;;;4.20;1.27;;;16.90;85.80;;;;;;5064484;28;20082;-58
2022/06/20 06:56:50;;;;;;;4.50;1.23;;;16.90;85.20;;;;;;5048023;28;20282;-59
2022/06/20 06:59:28;;;;;;;6.05;1.23;;;17.00;84.60;;;;;;5055093;28;20108;-59
2022/06/20 07:01:57;;;;;;;5.32;1.20;;;17.20;83.90;;;;;;5062099;28;20025;-58
2022/06/20 07:04:45;;;;;;;3.08;1.00;;;17.20;83.60;;;;;;5061651;28;20017;-58
2022/06/20 07:07:23;;;;;;;4.70;1.10;;;17.30;83.00;;;;;;5062709;28;20074;-58
2022/06/20 07:09:51;;;;;;;3.35;1.50;;;17.30;82.00;;;;;;5066018;28;20380;-59
2022/06/20 07:12:23;;;;;;;3.50;1.13;;;17.30;81.90;;;;;;5067763;28;20031;-58
2022/06/20 07:15:04;;;;;;;3.00;0.95;;;17.40;81.60;;;;;;5063045;28;20536;-58
2022/06/20 07:17:45;;;;;;;4.88;1.15;;;17.50;81.40;;;;;;5059667;28;20500;-59
2022/06/20 07:20:12;;;;;;;4.28;1.40;;;17.60;81.00;;;;;;5055704;28;20036;-58
2022/06/20 07:22:41;;;;;;;4.40;1.08;;;17.60;79.70;;;;;;5051242;28;20086;-59
2022/06/20 07:25:12;;;;;;;;;;;17.60;79.30;;;;;;5076283;28;20016;-59
2022/06/20 07:27:48;;;;;;;4.53;0.98;;;17.60;79.70;;;;;;5059969;28;19911;-58
2022/06/20 07:30:17;;;;;;;4.80;1.65;;;17.70;79.00;;;;;;5054962;28;20058;-59
2022/06/20 07:33:04;;;;;;;4.50;1.42;;;17.70;77.50;;;;;;5062904;28;20381;-59
2022/06/20 07:35:42;;;;;;;6.10;1.88;;;17.70;77.20;;;;;;5065689;28;20025;-60
2022/06/20 07:38:18;;;;;;;3.10;1.02;;;17.80;77.20;;;;;;5061592;28;20020;-59
2022/06/20 07:40:56;;;;;;;4.45;1.00;;;17.90;76.30;;;;;;5060302;28;20025;-59
2022/06/20 07:43:37;;;;;;;2.63;1.00;;;18.00;76.00;;;;;;5065474;28;20024;-59
2022/06/20 07:46:14;;;;;;;2.15;0.80;;;18.20;75.10;;;;;;5064478;28;20027;-59
2022/06/20 07:48:42;;;;;;;2.35;1.10;;;18.30;73.90;;;;;;5058083;28;20012;-59
2022/06/20 07:51:26;;;;;;;2.83;1.90;;;18.40;73.10;;;;;;5055661;28;20525;-58
2022/06/20 07:54:27;;;;;;;3.80;1.17;;;18.60;72.20;;;;;;5055142;28;20503;-59
2022/06/20 07:57:09;;;;;;;5.97;1.10;;;18.70;71.80;;;;;;5061847;28;20040;-59
2022/06/20 07:59:44;;;;;;;2.45;0.80;;;18.80;71.60;;;;;;5067222;28;20031;-59
2022/06/20 08:02:54;;;;;;;2.92;1.00;;;18.80;70.70;;;;;;5101927;28;20020;-59
2022/06/20 08:05:44;;;;;;;3.63;1.10;;;18.90;70.30;;;;;;5069212;28;20170;-59
2022/06/20 08:08:29;;;;;;;1.98;0.75;;;18.90;70.30;;;;;;5067938;28;20036;-59
2022/06/20 08:11:07;;;;;;;4.22;0.90;;;19.00;70.70;;;;;;5058344;28;20028;-59
2022/06/20 08:13:41;;;;;;;2.28;0.90;;;19.10;70.70;;;;;;5076272;28;20029;-59
2022/06/20 08:16:42;;;;;;;;;;;;;;;;;;;;;
2022/06/20 08:19:08;;;;;;;4.03;0.85;;;19.10;70.90;;;;;;5065854;28;20025;-59
2022/06/20 08:21:44;;;;;;;4.15;1.48;;;19.00;71.40;;;;;;5053387;28;20515;-59
2022/06/20 08:24:17;;;;;;;4.55;1.05;;;19.00;71.60;;;;;;5074873;28;20112;-60
2022/06/20 08:26:55;;;;;;;3.40;1.15;;;19.10;71.90;;;;;;5052997;28;20096;-59
2022/06/20 08:29:32;;;;;;;3.47;1.15;;;19.10;71.50;;;;;;5064425;28;20442;-59
2022/06/20 08:32:24;;;;;;;3.20;1.08;;;19.20;71.30;;;;;;5088179;28;20468;-59
2022/06/20 08:35:09;;;;;;;5.40;1.42;;;19.30;70.20;;;;;;5062726;28;20063;-59
2022/06/20 08:37:43;;;;;;;4.55;1.88;;;19.30;69.40;;;;;;5051975;28;20374;-60
2022/06/20 08:40:15;;;;;;;4.25;1.25;;;19.30;69.10;;;;;;5054923;28;20028;-60
2022/06/20 08:43:06;;;;;;;2.83;1.30;;;19.40;68.70;;;;;;5059212;28;20473;-60
2022/06/20 08:45:37;;;;;;;3.40;0.90;;;19.40;67.70;;;;;;5061941;28;20016;-59
2022/06/20 08:48:33;;;;;;;4.55;1.67;;;19.50;67.80;;;;;;5065789;28;20477;-60
2022/06/20 08:51:27;;;;;;;6.82;1.52;;;19.70;67.30;;;;;;5079148;28;20024;-59
2022/06/20 08:54:16;;;;;;;7.63;2.97;;;19.70;65.90;;;;;;5065599;28;20074;-60
2022/06/20 08:57:00;;;;;;;5.68;1.48;;;19.80;66.00;;;;;;5060637;28;20088;-60
2022/06/20 08:59:47;;;;;;;3.30;1.27;;;19.90;66.60;;;;;;5068366;28;20109;-60
2022/06/20 09:02:31;;;;;;;5.63;1.23;;;20.10;65.20;;;;;;5061999;28;20024;-59
2022/06/20 09:05:09;;;;;;;6.38;1.42;;;20.10;64.70;;;;;;5069021;28;20086;-60
2022/06/20 09:07:34;;;;;;;7.47;1.00;;;20.20;63.50;;;;;;5069730;28;20423;-59
2022/06/20 09:10:13;;;;;;;3.35;0.93;;;20.20;63.20;;;;;;5060399;28;20527;-59
2022/06/20 09:13:11;;;;;;;2.30;0.70;;;20.40;63.00;;;;;;5071880;28;20030;-59
2022/06/20 09:15:52;;;;;;;3.28;1.23;;;20.50;62.50;;;;;;5059663;28;20035;-60
2022/06/20 09:18:45;;;;;;;2.08;0.80;;;20.60;62.50;;;;;;5076482;28;20031;-60
2022/06/20 09:21:51;;;;;;;4.30;0.70;;;20.70;62.40;;;;;;5070944;28;20021;-60
2022/06/20 09:24:52;;;;;;;4.47;1.23;;;20.70;62.50;;;;;;5057645;28;20025;-59
2022/06/20 09:27:49;;;;;;;3.53;0.70;;;20.80;61.90;;;;;;5066073;28;20024;-60
2022/06/20 09:30:19;;;;;;;3.50;0.90;;;20.80;61.50;;;;;;5056170;28;20067;-60
2022/06/20 09:33:19;;;;;;;2.90;1.27;;;20.80;61.60;;;;;;5066249;28;20046;-59
2022/06/20 09:36:03;;;;;;;2.22;1.10;;;20.90;59.90;;;;;;5062942;28;20531;-59
2022/06/20 09:38:58;;;;;;;3.33;0.93;;;20.80;59.90;;;;;;5060311;28;20045;-60
2022/06/20 09:41:50;;;;;;;3.80;0.90;;;20.80;60.40;;;;;;5059080;28;20495;-59
2022/06/20 09:44:18;;;;;;;4.65;1.40;;;20.90;61.10;;;;;;5060396;28;20049;-59
2022/06/20 09:47:05;;;;;;;3.40;1.05;;;20.90;61.00;;;;;;5058289;28;20027;-60
2022/06/20 09:49:51;;;;;;;2.92;1.05;;;21.10;60.90;;;;;;5079973;28;20511;-59
2022/06/20 09:52:47;;;;;;;3.90;1.20;;;21.10;59.50;;;;;;5056701;28;20142;-59
2022/06/20 09:59:07;;;;;;;2.75;1.17;;;21.20;58.90;;;;;;5053493;28;20029;-60
2022/06/20 10:02:12;;;;;;;7.07;1.00;;;21.30;59.20;;;;;;5057940;28;20099;-60
2022/06/20 10:04:50;;;;;;;4.18;1.10;;;21.40;59.20;;;;;;5059541;28;20036;-59
2022/06/20 10:07:27;;;;;;;3.35;0.82;;;21.50;59.40;;;;;;5060116;28;20056;-59
2022/06/20 10:10:05;;;;;;;3.10;1.23;;;21.60;59.60;;;;;;5062374;28;20050;-59
2022/06/20 10:12:54;;;;;;;8.03;1.30;;;21.70;59.70;;;;;;5077554;28;20040;-59
2022/06/20 10:15:50;;;;;;;;;;;;;;;;;;;;;
2022/06/20 10:18:35;;;;;;;4.88;1.40;;;21.60;58.90;;;;;;5054435;28;20031;-60
2022/06/20 10:21:14;;;;;;;2.58;0.90;;;21.70;59.20;;;;;;5066374;28;20032;-59
2022/06/20 10:23:51;;;;;;;3.35;1.20;;;21.90;58.30;;;;;;5060528;28;20383;-60
2022/06/20 10:26:17;;;;;;;3.92;1.10;;;22.00;58.10;;;;;;5071365;28;20021;-60
2022/06/20 10:29:10;;;;;;;2.78;0.82;;;22.00;58.00;;;;;;5071722;28;20078;-59
2022/06/20 10:32:08;;;;;;;2.42;0.80;;;22.10;57.60;;;;;;5097203;27;20130;-59
2022/06/20 10:34:39;;;;;;;4.15;0.75;;;22.20;57.60;;;;;;5065534;28;20504;-59
2022/06/20 10:37:24;;;;;;;5.75;1.30;;;22.20;57.30;;;;;;5074397;28;20125;-59
2022/06/20 10:40:16;;;;;;;2.35;1.13;;;22.10;57.20;;;;;;5069656;28;20023;-59
2022/06/20 10:43:00;;;;;;;3.53;0.98;;;22.10;57.20;;;;;;5063132;28;20473;-59
2022/06/20 10:46:07;;;;;;;3.17;1.08;;;22.20;56.90;;;;;;5062993;28;20062;-59
2022/06/20 10:49:01;;;;;;;2.63;1.20;;;22.50;56.70;;;;;;5080793;28;20515;-60
2022/06/20 10:52:01;;;;;;;3.45;1.02;;;22.40;55.90;;;;;;5071811;28;20036;-59
2022/06/20 10:55:05;;;;;;;4.28;0.80;;;22.50;56.10;;;;;;5072592;28;20614;-60
2022/06/20 10:58:00;;;;;;;2.03;0.80;;;22.70;56.00;;;;;;5069029;28;20037;-60
2022/06/20 11:00:29;;;;;;;3.72;0.90;;;22.90;55.90;;;;;;5061958;28;20047;-59
2022/06/20 11:03:02;;;;;;;;;;;23.00;55.20;;;;;;5056135;28;20390;-60
2022/06/20 11:05:58;;;;;;;2.10;0.63;;;23.00;55.50;;;;;;5058427;28;19905;-60
2022/06/20 11:08:44;;;;;;;3.00;0.98;;;23.00;54.70;;;;;;5072183;28;20031;-60
2022/06/20 11:11:38;;;;;;;1.90;0.50;;;23.10;54.40;;;;;;5061223;28;20017;-59
2022/06/20 11:14:22;;;;;;;3.33;0.82;;;23.10;53.50;;;;;;5056777;28;20468;-60
2022/06/20 11:17:07;;;;;;;3.30;0.73;;;23.20;53.20;;;;;;5051210;28;20095;-60
2022/06/20 11:19:46;;;;;;;2.22;0.52;;;23.20;52.90;;;;;;5067140;28;20031;-60
2022/06/20 11:22:49;;;;;;;;;;;;;;;;;;;;;
2022/06/20 11:26:04;;;;;;;2.40;0.50;;;23.40;52.30;;;;;;5058029;28;20515;-60
2022/06/20 11:28:57;;;;;;;2.50;0.50;;;23.40;52.20;;;;;;5040110;28;20048;-60
2022/06/20 11:31:33;;;;;;;2.45;0.50;;;23.40;51.40;;;;;;5029518;28;20025;-59
2022/06/20 11:34:27;;;;;;;4.22;0.68;;;23.60;51.50;;;;;;5051721;28;20045;-60
2022/06/20 11:37:23;;;;;;;2.78;0.60;;;23.80;50.90;;;;;;5068297;28;20093;-61
2022/06/20 11:40:29;;;;;;;1.13;0.50;;;23.90;50.50;;;;;;5063657;28;20021;-60
2022/06/20 11:43:23;;;;;;;4.22;0.98;;;24.00;50.70;;;;;;5062748;28;20025;-60
2022/06/20 11:46:06;;;;;;;2.92;0.80;;;24.20;50.20;;;;;;5056333;28;20047;-60
2022/06/20 11:48:49;;;;;;;1.83;0.80;;;24.30;50.00;;;;;;5060995;28;20056;-60
2022/06/20 11:51:28;;;;;;;2.67;0.63;;;24.30;49.70;;;;;;5075489;28;20048;-60
2022/06/20 11:54:12;;;;;;;;;;;24.40;49.60;;;;;;5072308;28;20365;-60
2022/06/20 11:57:07;;;;;;;2.05;0.60;;;24.40;49.70;;;;;;5071046;28;19944;-60
2022/06/20 12:00:04;;;;;;;2.85;0.88;;;24.60;50.20;;;;;;5044606;28;20041;-60
2022/06/20 12:03:11;;;;;;;;;;;;;;;;;;;;;
2022/06/20 12:05:48;;;;;;;4.13;1.10;;;25.00;49.90;;;;;;5050376;28;20028;-60
2022/06/20 12:08:43;;;;;;;3.42;0.82;;;24.90;50.00;;;;;;5066415;28;20021;-60
2022/06/20 12:11:55;;;;;;;2.00;0.88;;;24.90;50.00;;;;;;5062365;28;20162;-59
2022/06/20 12:14:31;;;;;;;2.25;0.80;;;25.20;50.00;;;;;;5058108;28;20024;-60
2022/06/20 12:17:19;;;;;;;2.10;0.68;;;25.40;49.40;;;;;;5057316;28;20025;-60
2022/06/20 12:25:50;;;;;;;4.90;1.02;;;25.60;48.60;;;;;;5057870;28;20064;-60
2022/06/20 12:28:20;;;;;;;1.98;0.60;;;25.60;48.70;;;;;;5051501;28;20028;-60
2022/06/20 12:31:12;;;;;;;3.90;0.70;;;25.60;48.20;;;;;;5055012;28;20496;-60
2022/06/20 12:33:43;;;;;;;2.92;0.68;;;25.60;48.40;;;;;;5068077;28;20060;-60
2022/06/20 12:36:18;;;;;;;2.78;0.73;;;25.60;48.10;;;;;;5052931;28;20017;-60
2022/06/20 12:39:00;;;;;;;3.10;0.73;;;25.80;48.20;;;;;;5055055;28;20074;-60
2022/06/20 12:42:05;;;;;;;3.38;0.88;;;25.90;47.70;;;;;;5071633;28;20032;-59
2022/06/20 12:44:47;;;;;;;1.58;0.70;;;25.80;47.60;;;;;;5052830;28;20507;-60
2022/06/20 12:47:39;;;;;;;2.00;0.70;;;25.70;47.80;;;;;;5071550;28;20024;-60
2022/06/20 12:50:24;;;;;;;3.22;1.00;;;25.60;47.90;;;;;;5069690;28;20024;-60
2022/06/20 12:53:02;;;;;;;2.05;0.65;;;25.60;47.80;;;;;;5056021;28;20021;-60
2022/06/20 12:55:55;;;;;;;2.00;0.60;;;25.60;48.00;;;;;;5057418;28;20075;-60
2022/06/20 12:58:49;;;;;;;2.72;0.70;;;25.80;47.50;;;;;;5057278;28;20021;-59
2022/06/20 13:01:24;;;;;;;2.60;0.75;;;25.90;47.60;;;;;;5056047;28;20017;-60
2022/06/20 13:04:18;;;;;;;4.45;0.90;;;25.80;47.70;;;;;;5059250;28;20107;-60
2022/06/20 13:07:11;;;;;;;2.63;0.80;;;25.60;47.40;;;;;;5064023;28;20385;-60
2022/06/20 13:09:49;;;;;;;2.47;0.68;;;25.30;47.40;;;;;;5056743;28;20567;-60
2022/06/20 13:12:34;;;;;;;3.45;0.85;;;25.10;47.40;;;;;;5069629;28;20029;-60
2022/06/20 13:15:21;;;;;;;2.63;0.50;;;25.00;47.30;;;;;;5052498;28;20029;-60
2022/06/20 13:17:59;;;;;;;3.83;1.00;;;25.30;48.10;;;;;;5065635;28;20025;-60
2022/06/20 13:20:39;;;;;;;4.00;0.63;;;25.60;47.40;;;;;;5052401;28;20020;-60
2022/06/20 13:23:14;;;;;;;2.97;0.93;;;25.90;47.30;;;;;;5052499;28;20071;-60
2022/06/20 13:26:10;;;;;;;2.75;0.50;;;26.10;46.70;;;;;;5052736;28;20100;-60
2022/06/20 13:28:35;;;;;;;3.95;0.80;;;26.30;46.70;;;;;;5052853;28;20448;-60
2022/06/20 13:31:16;;;;;;;2.42;0.60;;;26.40;46.50;;;;;;5070778;28;20047;-60
2022/06/20 13:33:59;;;;;;;3.22;0.70;;;26.40;46.10;;;;;;5062462;28;20025;-60
2022/06/20 13:37:03;;;;;;;4.20;0.57;;;26.30;45.80;;;;;;5054223;28;20029;-60
2022/06/20 13:40:22;;;;;;;1.92;0.60;;;26.20;46.30;;;;;;5059613;28;20434;-60
2022/06/20 13:43:19;;;;;;;4.53;0.95;;;26.20;46.60;;;;;;5052127;28;20035;-60
2022/06/20 13:45:51;;;;;;;4.38;0.88;;;26.10;46.50;;;;;;5059321;28;20037;-60
2022/06/20 13:48:24;;;;;;;3.08;0.93;;;26.00;46.60;;;;;;5054181;28;20434;-60
2022/06/20 13:51:05;;;;;;;4.70;1.10;;;25.90;47.10;;;;;;5070284;28;20033;-60
2022/06/20 13:53:42;;;;;;;2.67;0.60;;;26.10;47.10;;;;;;5066960;28;20032;-60
2022/06/20 13:56:27;;;;;;;2.08;0.80;;;26.30;47.00;;;;;;5066653;28;20051;-59
2022/06/20 13:59:20;;;;;;;4.57;0.80;;;26.50;46.40;;;;;;5075520;28;20082;-60
2022/06/20 14:02:27;;;;;;;2.17;0.82;;;26.60;45.50;;;;;;5054368;28;20021;-60
2022/06/20 14:04:53;;;;;;;1.98;0.70;;;26.80;45.40;;;;;;5059542;28;20103;-60
2022/06/20 14:07:25;;;;;;;1.65;0.50;;;26.80;45.70;;;;;;5073584;28;20029;-60
2022/06/20 14:09:53;;;;;;;3.28;0.60;;;27.00;45.60;;;;;;5072367;28;20482;-60
2022/06/20 14:12:35;;;;;;;2.73;0.90;;;27.10;45.60;;;;;;5068269;28;20481;-60
2022/06/20 14:15:07;;;;;;;2.10;0.80;;;27.00;45.60;;;;;;5068496;28;20026;-61
2022/06/20 14:17:36;;;;;;;2.13;0.80;;;26.90;45.60;;;;;;5059091;28;20029;-60
2022/06/20 14:20:08;;;;;;;;;;;26.90;45.90;;;;;;5060573;28;20518;-60